createdAt,value
2019-04-27T00:01:36.633Z,7.20
2019-04-27T00:05:32.411Z,10.17
2019-04-27T00:13:09.718Z,5.77
2019-04-27T00:20:40.672Z,8.40
2019-04-27T00:24:23.614Z,8.43
2019-04-27T00:27:35.155Z,8.07
2019-04-27T01:23:58.886Z,8.40
2019-04-27T01:26:53.247Z,8.73
2019-04-27T01:29:50.707Z,8.47
2019-04-27T01:39:40.629Z,9.37
2019-04-27T01:42:13.709Z,10.27
2019-04-27T01:44:46.572Z,10.07
2019-04-27T01:47:51.417Z,5.30
2019-04-27T01:50:33.798Z,10.80
2019-04-27T01:53:25.869Z,8.47
2019-04-27T01:56:12.104Z,7.17
2019-04-27T01:58:54.035Z,7.40
2019-04-27T02:01:46.956Z,7.20
2019-04-27T02:04:42.019Z,7.67
2019-04-27T02:07:15.318Z,8.33
2019-04-27T02:09:48.566Z,7.07
2019-04-27T02:12:19.175Z,6.10
2019-04-27T02:14:49.203Z,8.80
2019-04-27T02:17:20.456Z,10.83
2019-04-27T02:19:55.771Z,8.63
2019-04-27T02:22:25.103Z,8.40
2019-04-27T02:24:54.665Z,7.10
2019-04-27T02:27:25.953Z,8.20
2019-04-27T02:30:12.902Z,10.43
2019-04-27T02:32:59.427Z,6.40
2019-04-27T02:35:31.700Z,10.70
2019-04-27T02:38:00.860Z,7.50
2019-04-27T02:40:53.468Z,6.90
2019-04-27T02:43:25.441Z,6.83
2019-04-27T02:45:54.776Z,10.90
2019-04-27T02:48:23.997Z,9.77
2019-04-27T02:51:04.758Z,9.20
2019-04-27T02:53:52.686Z,7.60
2019-04-27T02:56:37.102Z,9.47
2019-04-27T02:59:09.551Z,10.07
2019-04-27T03:02:31.886Z,11.00
2019-04-27T03:05:01.001Z,11.77
2019-04-27T03:07:30.452Z,8.27
2019-04-27T03:10:11.653Z,12.10
2019-04-27T03:12:46.291Z,6.93
2019-04-27T03:15:37.519Z,12.37
2019-04-27T03:18:15.215Z,8.93
2019-04-27T03:21:13.010Z,6.40
2019-04-27T03:23:51.348Z,8.53
2019-04-27T03:26:39.041Z,7.70
2019-04-27T03:29:20.198Z,9.37
2019-04-27T03:31:54.123Z,13.70
2019-04-27T03:34:22.144Z,8.80
2019-04-27T03:36:53.823Z,9.13
2019-04-27T03:39:23.296Z,9.07
2019-04-27T03:41:52.892Z,9.97
2019-04-27T03:44:23.321Z,7.73
2019-04-27T03:46:52.979Z,8.80
2019-04-27T03:49:35.061Z,8.63
2019-04-27T03:52:14.613Z,11.03
2019-04-27T03:54:53.064Z,10.90
2019-04-27T03:57:41.458Z,14.57
2019-04-27T04:00:16.184Z,17.03
2019-04-27T04:02:45.177Z,9.53
2019-04-27T04:05:14.266Z,16.03
2019-04-27T04:07:43.233Z,11.17
2019-04-27T04:10:12.787Z,10.67
2019-04-27T04:13:10.532Z,11.27
2019-04-27T04:15:46.448Z,13.80
2019-04-27T04:18:19.626Z,14.47
2019-04-27T04:20:50.546Z,11.90
2019-04-27T04:23:20.346Z,14.63
2019-04-27T04:25:50.111Z,12.70
2019-04-27T04:28:20.199Z,12.67
2019-04-27T04:30:50.205Z,13.57
2019-04-27T04:33:20.573Z,17.57
2019-04-27T04:35:50.294Z,17.80
2019-04-27T04:39:04.861Z,14.00
2019-04-27T04:42:10.232Z,17.60
2019-04-27T04:45:00.751Z,13.20
2019-04-27T04:47:55.204Z,15.27
2019-04-27T04:50:54.726Z,18.87
2019-04-27T04:53:25.002Z,18.63
2019-04-27T04:55:54.627Z,17.17
2019-04-27T04:58:29.260Z,15.63
2019-04-27T05:00:59.556Z,17.97
2019-04-27T05:03:32.416Z,16.50
2019-04-27T05:06:06.120Z,19.67
2019-04-27T05:08:41.498Z,18.13
2019-04-27T05:11:13.819Z,15.10
2019-04-27T05:13:49.413Z,14.87
2019-04-27T05:16:19.021Z,16.33
2019-04-27T05:18:51.559Z,15.13
2019-04-27T05:21:32.207Z,17.87
2019-04-27T05:24:01.112Z,14.80
2019-04-27T05:26:40.964Z,15.60
2019-04-27T05:29:09.259Z,16.50
2019-04-27T05:31:38.941Z,15.97
2019-04-27T05:34:10.644Z,15.53
2019-04-27T05:36:43.547Z,14.13
2019-04-27T05:39:13.344Z,15.03
2019-04-27T05:41:46.712Z,15.07
2019-04-27T05:44:45.647Z,17.50
2019-04-27T05:47:43.327Z,11.83
2019-04-27T05:50:46.082Z,11.77
2019-04-27T05:53:15.378Z,14.80
2019-04-27T05:55:53.598Z,13.47
2019-04-27T05:58:22.687Z,12.23
2019-04-27T06:01:11.618Z,13.73
2019-04-27T06:03:41.146Z,17.67
2019-04-27T06:06:55.290Z,16.47
2019-04-27T06:09:39.109Z,10.40
2019-04-27T06:12:22.655Z,12.30
2019-04-27T06:14:53.877Z,9.80
2019-04-27T06:17:22.787Z,12.30
2019-04-27T06:19:51.927Z,8.27
2019-04-27T06:22:24.259Z,14.13
2019-04-27T06:24:54.601Z,10.57
2019-04-27T06:27:37.235Z,17.83
2019-04-27T06:30:06.798Z,9.10
2019-04-27T06:32:36.330Z,8.93
2019-04-27T06:35:08.563Z,8.90
2019-04-27T06:37:38.959Z,8.90
2019-04-27T06:40:09.771Z,9.00
2019-04-27T06:42:39.815Z,11.10
2019-04-27T06:45:09.939Z,9.70
2019-04-27T06:47:44.498Z,12.03
2019-04-27T06:50:13.358Z,8.77
2019-04-27T06:52:42.913Z,17.00
2019-04-27T06:55:12.146Z,11.07
2019-04-27T06:57:41.328Z,16.77
2019-04-27T07:00:12.393Z,11.87
2019-04-27T07:02:45.943Z,15.03
2019-04-27T07:05:14.938Z,16.03
2019-04-27T07:07:43.913Z,12.27
2019-04-27T07:10:13.204Z,13.33
2019-04-27T07:12:42.374Z,16.70
2019-04-27T07:15:11.473Z,20.73
2019-04-27T07:17:40.469Z,13.07
2019-04-27T07:20:14.404Z,14.63
2019-04-27T07:22:44.153Z,13.93
2019-04-27T07:25:13.477Z,19.80
2019-04-27T07:27:43.194Z,20.90
2019-04-27T07:30:19.019Z,18.00
2019-04-27T07:32:48.973Z,16.73
2019-04-27T07:35:19.666Z,22.63
2019-04-27T07:37:54.998Z,24.27
2019-04-27T07:40:28.921Z,24.13
2019-04-27T07:43:06.535Z,16.20
2019-04-27T07:45:39.592Z,16.90
2019-04-27T07:48:09.538Z,18.53
2019-04-27T07:50:39.064Z,14.93
2019-04-27T07:53:08.706Z,18.47
2019-04-27T07:55:39.258Z,20.00
2019-04-27T07:58:08.909Z,19.07
2019-04-27T08:00:39.480Z,16.43
2019-04-27T08:03:10.025Z,17.50
2019-04-27T08:05:39.445Z,17.63
2019-04-27T08:08:09.299Z,19.77
2019-04-27T08:10:42.819Z,19.13
2019-04-27T08:13:11.876Z,11.37
2019-04-27T08:15:43.088Z,9.90
2019-04-27T08:18:12.841Z,13.03
2019-04-27T08:20:42.230Z,16.07
2019-04-27T08:23:11.376Z,15.30
2019-04-27T08:25:40.328Z,18.43
2019-04-27T08:28:26.583Z,18.60
2019-04-27T08:31:28.542Z,15.73
2019-04-27T08:33:58.302Z,19.27
2019-04-27T08:36:28.912Z,23.83
2019-04-27T08:38:58.840Z,18.37
2019-04-27T08:41:29.477Z,15.50
2019-04-27T08:43:58.787Z,19.63
2019-04-27T08:46:30.404Z,27.53
2019-04-27T08:48:59.652Z,20.00
2019-04-27T08:51:29.135Z,14.17
2019-04-27T08:53:59.134Z,25.17
2019-04-27T08:56:30.490Z,19.77
2019-04-27T08:58:59.770Z,18.03
2019-04-27T09:01:30.258Z,26.27
2019-04-27T09:04:02.879Z,15.17
2019-04-27T09:06:37.346Z,20.23
2019-04-27T09:09:14.499Z,24.13
2019-04-27T09:12:00.833Z,20.23
2019-04-27T09:14:40.775Z,17.43
2019-04-27T09:17:29.166Z,26.43
2019-04-27T09:20:06.015Z,18.20
2019-04-27T09:22:35.185Z,13.33
2019-04-27T09:25:04.505Z,13.20
2019-04-27T09:27:33.896Z,17.23
2019-04-27T09:30:03.239Z,12.57
2019-04-27T09:32:32.763Z,16.67
2019-04-27T09:35:03.314Z,22.37
2019-04-27T09:37:32.938Z,14.57
2019-04-27T09:40:02.138Z,17.87
2019-04-27T09:42:31.467Z,20.80
2019-04-27T09:45:01.371Z,16.57
2019-04-27T09:47:32.332Z,16.83
2019-04-27T09:50:05.727Z,16.27
2019-04-27T09:52:35.881Z,19.20
2019-04-27T09:55:06.918Z,15.50
2019-04-27T09:57:36.548Z,14.47
2019-04-27T10:00:07.142Z,16.40
2019-04-27T10:02:36.616Z,15.63
2019-04-27T10:05:07.510Z,15.47
2019-04-27T10:07:37.616Z,17.43
2019-04-27T10:10:07.404Z,22.93
2019-04-27T10:12:37.002Z,18.87
2019-04-27T10:15:06.838Z,20.60
2019-04-27T10:17:37.198Z,17.53
2019-04-27T10:20:08.463Z,19.30
2019-04-27T10:22:43.332Z,17.60
2019-04-27T10:25:22.759Z,14.67
2019-04-27T10:28:01.379Z,19.53
2019-04-27T10:30:33.063Z,17.77
2019-04-27T10:33:02.113Z,19.47
2019-04-27T10:35:31.216Z,18.17
2019-04-27T10:38:00.389Z,17.13
2019-04-27T10:40:29.675Z,21.97
2019-04-27T10:42:58.939Z,12.97
2019-04-27T10:45:32.562Z,13.17
2019-04-27T10:48:01.882Z,10.97
2019-04-27T10:50:31.351Z,11.40
2019-04-27T10:53:00.324Z,13.23
2019-04-27T10:55:29.682Z,10.83
2019-04-27T10:57:59.028Z,9.83
2019-04-27T11:00:34.422Z,7.83
2019-04-27T11:03:03.340Z,12.60
2019-04-27T11:05:46.040Z,7.40
2019-04-27T11:08:16.702Z,9.50
2019-04-27T11:10:46.256Z,8.03
2019-04-27T11:13:16.515Z,8.37
2019-04-27T11:15:46.193Z,8.53
2019-04-27T11:18:17.361Z,11.40
2019-04-27T11:20:48.095Z,10.50
2019-04-27T11:23:17.495Z,13.50
2019-04-27T11:25:46.901Z,12.40
2019-04-27T11:28:16.046Z,13.13
2019-04-27T11:30:45.112Z,11.77
2019-04-27T11:33:13.956Z,10.33
2019-04-27T11:35:58.229Z,15.80
2019-04-27T11:38:27.395Z,10.47
2019-04-27T11:40:56.770Z,9.33
2019-04-27T11:43:26.436Z,7.83
2019-04-27T11:45:55.947Z,5.17
2019-04-27T11:48:26.292Z,5.87
2019-04-27T11:50:56.166Z,8.47
2019-04-27T11:53:26.249Z,5.80
2019-04-27T11:55:58.401Z,6.57
2019-04-27T11:58:27.346Z,8.97
2019-04-27T12:00:56.810Z,7.17
2019-04-27T12:03:29.340Z,5.40
2019-04-27T12:06:00.335Z,6.83
2019-04-27T12:08:29.178Z,8.10
2019-04-27T12:10:58.086Z,6.70
2019-04-27T12:13:27.036Z,9.80
2019-04-27T12:15:56.169Z,7.40
2019-04-27T12:18:25.132Z,9.17
2019-04-27T12:20:55.691Z,9.50
2019-04-27T12:23:33.676Z,10.07
2019-04-27T12:25:56.315Z,12.80
2019-04-27T12:28:30.635Z,8.10
2019-04-27T12:31:02.625Z,9.47
2019-04-27T12:33:31.678Z,10.47
2019-04-27T12:36:00.488Z,11.20
2019-04-27T12:38:36.557Z,8.10
2019-04-27T12:41:06.757Z,8.10
2019-04-27T12:43:37.406Z,9.97
2019-04-27T12:46:10.287Z,11.93
2019-04-27T12:48:39.365Z,12.63
2019-04-27T12:51:08.339Z,11.20
2019-04-27T12:53:50.815Z,10.90
2019-04-27T12:56:26.065Z,13.43
2019-04-27T12:59:22.984Z,12.13
2019-04-27T13:01:51.940Z,11.13
2019-04-27T13:04:20.883Z,11.97
2019-04-27T13:06:49.812Z,7.50
2019-04-27T13:09:20.413Z,14.90
2019-04-27T13:11:49.445Z,12.53
2019-04-27T13:14:36.461Z,10.60
2019-04-27T13:17:01.198Z,10.13
2019-04-27T13:19:32.529Z,9.67
2019-04-27T13:22:07.067Z,10.87
2019-04-27T13:24:40.454Z,10.33
2019-04-27T13:27:16.681Z,8.80
2019-04-27T13:29:47.983Z,12.00
2019-04-27T13:32:22.938Z,12.87
2019-04-27T13:35:05.767Z,11.40
2019-04-27T13:37:42.175Z,7.87
2019-04-27T13:40:26.572Z,13.50
2019-04-27T13:43:17.380Z,10.30
2019-04-27T13:46:04.682Z,12.47
2019-04-27T13:48:59.045Z,12.30
2019-04-27T13:51:47.139Z,14.30
2019-04-27T13:54:25.947Z,9.97
2019-04-27T13:56:52.720Z,16.27
2019-04-27T13:59:29.140Z,12.50
2019-04-27T14:02:02.854Z,17.50
2019-04-27T14:04:43.711Z,13.30
2019-04-27T14:07:18.088Z,8.13
2019-04-27T14:10:05.456Z,9.40
2019-04-27T14:12:38.800Z,11.53
2019-04-27T14:15:09.147Z,9.37
2019-04-27T14:17:42.578Z,11.03
2019-04-27T14:20:21.248Z,10.40
2019-04-27T14:23:12.890Z,10.77
2019-04-27T14:25:46.200Z,15.10
2019-04-27T14:28:18.718Z,8.77
2019-04-27T14:30:52.555Z,8.20
2019-04-27T14:33:23.494Z,12.07
2019-04-27T14:35:53.659Z,10.40
2019-04-27T14:38:29.114Z,8.30
2019-04-27T14:41:03.157Z,11.10
2019-04-27T14:43:40.252Z,21.07
2019-04-27T14:46:14.843Z,13.27
2019-04-27T14:48:49.217Z,11.33
2019-04-27T14:51:19.634Z,12.07
2019-04-27T14:53:56.719Z,13.97
2019-04-27T14:56:28.213Z,10.70
2019-04-27T14:58:58.750Z,13.50
2019-04-27T15:01:33.624Z,16.73
2019-04-27T15:04:02.366Z,11.77
2019-04-27T15:06:31.525Z,11.50
2019-04-27T15:09:01.341Z,15.23
2019-04-27T15:17:57.572Z,12.27
2019-04-27T15:20:31.067Z,11.47
2019-04-27T15:23:00.435Z,15.47
2019-04-27T15:25:35.012Z,17.77
2019-04-27T15:28:02.275Z,12.87
2019-04-27T15:30:51.773Z,12.93
2019-04-27T15:33:42.444Z,15.10
2019-04-27T15:36:28.242Z,13.57
2019-04-27T15:39:03.686Z,14.90
2019-04-27T15:41:41.248Z,13.83
2019-04-27T15:44:16.277Z,12.90
2019-04-27T15:46:45.068Z,9.47
2019-04-27T15:49:14.369Z,12.90
2019-04-27T15:51:43.365Z,8.87
2019-04-27T15:54:12.155Z,10.30
2019-04-27T15:56:42.024Z,6.27
2019-04-27T15:59:11.907Z,11.53
2019-04-27T16:02:05.449Z,7.20
2019-04-27T16:04:34.634Z,12.03
2019-04-27T16:08:03.340Z,6.20
2019-04-27T16:10:25.629Z,12.67
2019-04-27T16:13:06.557Z,6.70
2019-04-27T16:15:25.611Z,15.33
2019-04-27T16:17:56.266Z,7.67
2019-04-27T16:20:30.208Z,11.30
2019-04-27T16:23:03.099Z,12.70
2019-04-27T16:25:32.806Z,16.17
2019-04-27T16:28:09.794Z,11.17
2019-04-27T16:30:36.066Z,7.83
2019-04-27T16:33:05.287Z,9.80
2019-04-27T16:35:38.964Z,10.70
2019-04-27T16:38:41.036Z,7.07
2019-04-27T16:41:09.935Z,7.03
2019-04-27T16:43:38.744Z,8.47
2019-04-27T16:46:10.455Z,12.30
2019-04-27T16:48:39.271Z,7.83
2019-04-27T16:51:21.469Z,9.43
2019-04-27T16:55:05.347Z,11.70
2019-04-27T16:57:39.969Z,7.30
2019-04-27T17:00:30.560Z,10.17
2019-04-27T17:03:03.291Z,7.70
2019-04-27T17:05:38.041Z,15.10
2019-04-27T17:08:14.307Z,9.07
2019-04-27T17:10:40.394Z,11.27
2019-04-27T17:13:29.852Z,9.67
2019-04-27T17:16:28.761Z,10.00
2019-04-27T17:19:12.300Z,7.33
2019-04-27T17:21:44.539Z,7.83
2019-04-27T17:24:46.438Z,9.37
2019-04-27T17:27:11.640Z,6.97
2019-04-27T17:29:42.408Z,8.33
2019-04-27T17:32:33.851Z,9.90
2019-04-27T17:35:07.373Z,7.87
2019-04-27T17:37:35.331Z,12.00
2019-04-27T17:40:04.644Z,11.00
2019-04-27T17:42:34.171Z,7.47
2019-04-27T17:45:02.828Z,11.37
2019-04-27T17:47:31.438Z,11.53
2019-04-27T17:50:00.562Z,7.43
2019-04-27T17:52:29.350Z,7.70
2019-04-27T17:58:25.344Z,15.63
2019-04-27T18:00:58.004Z,9.37
2019-04-27T18:03:45.768Z,11.43
2019-04-27T18:06:20.512Z,10.93
2019-04-27T18:08:48.715Z,9.50
2019-04-27T18:11:18.273Z,9.63
2019-04-27T18:13:50.226Z,7.67
2019-04-27T18:16:30.333Z,8.50
2019-04-27T18:19:08.262Z,12.57
2019-04-27T18:21:43.025Z,9.87
2019-04-27T18:24:18.630Z,8.57
2019-04-27T18:27:00.795Z,13.07
2019-04-27T18:29:27.581Z,10.23
2019-04-27T18:31:58.238Z,9.37
2019-04-27T18:34:30.055Z,8.43
2019-04-27T18:37:14.421Z,11.23
2019-04-27T18:39:45.441Z,8.63
2019-04-27T18:42:14.710Z,7.87
2019-04-27T18:44:48.653Z,7.50
2019-04-27T18:47:21.093Z,3.80
2019-04-27T18:50:14.673Z,8.07
2019-04-27T18:52:50.787Z,8.23
2019-04-27T18:55:34.795Z,11.87
2019-04-27T18:58:06.799Z,4.97
2019-04-27T19:00:38.159Z,11.50
2019-04-27T19:03:11.541Z,7.80
2019-04-27T19:05:40.678Z,10.30
2019-04-27T19:08:11.690Z,8.87
2019-04-27T19:10:40.623Z,8.97
2019-04-27T19:13:09.603Z,5.80
2019-04-27T19:15:38.672Z,7.13
2019-04-27T19:18:08.452Z,6.37
2019-04-27T19:20:39.060Z,6.73
2019-04-27T19:23:09.155Z,4.43
2019-04-27T19:25:51.489Z,8.47
2019-04-27T19:28:53.985Z,8.03
2019-04-27T19:31:24.344Z,5.70
2019-04-27T19:33:54.215Z,7.47
2019-04-27T19:36:38.687Z,12.70
2019-04-27T19:39:08.751Z,6.07
2019-04-27T19:41:41.581Z,5.73
2019-04-27T19:44:12.438Z,6.63
2019-04-27T19:46:44.794Z,7.23
2019-04-27T19:52:28.849Z,8.80
2019-04-27T19:53:30.316Z,4.77
2019-04-27T19:56:05.141Z,6.37
2019-04-27T19:58:30.635Z,8.30
2019-04-27T20:01:11.909Z,5.80
2019-04-27T20:03:51.001Z,6.77
2019-04-27T20:06:22.736Z,9.53
2019-04-27T20:09:06.496Z,4.70
2019-04-27T20:11:45.060Z,8.00
2019-04-27T20:15:17.132Z,6.10
2019-04-27T20:17:52.953Z,5.23
2019-04-27T20:20:28.531Z,4.80
2019-04-27T20:27:10.809Z,9.60
2019-04-27T20:29:45.618Z,6.83
2019-04-27T20:32:27.342Z,10.23
2019-04-27T20:36:01.025Z,8.87
2019-04-27T20:38:41.952Z,10.10
2019-04-27T20:41:21.885Z,7.67
2019-04-27T20:48:05.825Z,13.67
2019-04-27T20:50:24.073Z,6.60
2019-04-27T21:00:43.263Z,8.07
2019-04-27T21:04:04.685Z,8.07
2019-04-27T21:10:00.368Z,7.57
2019-04-27T21:12:44.237Z,10.67
2019-04-27T21:15:16.064Z,6.87
2019-04-27T21:18:31.798Z,7.27
2019-04-27T21:21:06.013Z,9.13
2019-04-27T21:23:35.027Z,7.10
2019-04-27T21:26:05.734Z,9.40
2019-04-27T21:28:34.839Z,12.27
2019-04-27T21:31:03.336Z,9.10
2019-04-27T21:33:40.912Z,6.97
2019-04-27T21:36:18.126Z,4.40
2019-04-27T21:38:51.244Z,9.63
2019-04-27T21:41:31.256Z,5.00
2019-04-27T21:44:01.547Z,8.23
2019-04-27T21:46:36.391Z,9.37
2019-04-27T21:49:02.770Z,7.47
2019-04-27T21:51:32.983Z,10.70
2019-04-27T21:54:20.455Z,7.10
2019-04-27T21:57:00.859Z,8.20
2019-04-27T21:59:54.432Z,13.43
2019-04-27T22:02:41.711Z,9.80
2019-04-27T22:05:15.027Z,3.83
2019-04-27T22:07:48.206Z,6.37
2019-04-27T22:10:20.934Z,6.63
2019-04-27T22:12:54.432Z,7.20
2019-04-27T22:15:33.809Z,11.13
2019-04-27T22:18:02.838Z,11.67
2019-04-27T22:20:37.784Z,11.23
2019-04-27T22:23:15.170Z,8.13
2019-04-27T22:25:43.937Z,7.83
2019-04-27T22:28:12.609Z,10.07
2019-04-27T22:30:46.854Z,7.00
2019-04-27T22:33:18.540Z,7.63
2019-04-27T22:35:51.781Z,7.60
2019-04-27T22:38:20.762Z,8.03
2019-04-27T22:41:02.112Z,7.03
2019-04-27T22:43:45.641Z,9.20
2019-04-27T22:46:22.728Z,5.83
2019-04-27T22:48:52.182Z,11.60
2019-04-27T22:51:21.274Z,8.23
2019-04-27T22:53:53.225Z,5.23
2019-04-27T22:56:42.183Z,8.27
2019-04-27T22:59:31.673Z,5.07
2019-04-27T23:02:21.582Z,9.40
2019-04-27T23:04:54.648Z,8.83
2019-04-27T23:07:23.750Z,9.47
2019-04-27T23:09:52.450Z,6.03
2019-04-27T23:12:23.079Z,7.80
2019-04-27T23:14:55.444Z,7.13
2019-04-27T23:17:46.758Z,4.20
2019-04-27T23:20:15.648Z,10.33
2019-04-27T23:22:49.644Z,9.03
2019-04-27T23:25:23.391Z,6.57
2019-04-27T23:27:53.280Z,3.80
2019-04-27T23:30:26.547Z,2.27
2019-04-27T23:32:56.188Z,4.60
2019-04-27T23:35:24.788Z,4.00
2019-04-27T23:37:53.496Z,6.83
2019-04-27T23:40:22.069Z,5.87
2019-04-27T23:42:51.642Z,4.57
2019-04-27T23:45:20.495Z,3.50
2019-04-27T23:47:51.152Z,7.53
2019-04-27T23:50:19.647Z,6.63
2019-04-27T23:53:22.462Z,6.27
2019-04-27T23:55:51.412Z,9.33
2019-04-27T23:58:20.052Z,6.17
